Norse Mersey — IBEN — position and weather

sailwx.info

Track history (hours):
 
Tides and Currents Weather Stations Pressure Air Temp Water Temp Dewpoint Dewpoint Depression Visibility Wind Speed Wind Dir Waves Ship Positions

Norse Mersey

Operator: Norse Merchant Ferries

Last reported at 2020-Jul-02 03:59 UTC. Time now 2020-Jul-02 15:36 UTC.
Position N 40°10' E 014°29'.

Length 175 m; draft 5.4 m.

Type: Passenger vessel. MMSI: 247026000.

Date/timePositionNaut miles runAvg speedWind from/ knotsBaromVisibWave heightAir tempDewpointWater temp
2020-Jul-02 03:59N 40°10' E 014°29'815.2
2020-Jul-02 03:28N 40°03' E 014°25'15 0.5
2020-Jun-30 21:27N 40°17' E 014°33'  
2020-Jun-25 04:54N 40°25' E 014°37'1415.4
2020-Jun-25 04:00N 40°12' E 014°30'1815.6
2020-Jun-25 02:53N 39°56' E 014°22'9215.6
2020-Jun-24 21:00N 38°31' E 013°38'2610.4
2020-Jun-24 18:30N 38°08' E 013°22'0 0.0
2020-Jun-24 15:30N 38°08' E 013°22'0 0.0
2020-Jun-24 14:00N 38°08' E 013°22'0 0.0
2020-Jun-24 12:00N 38°08' E 013°22'0 0.0
2020-Jun-24 11:30N 38°08' E 013°22'0 0.0
2020-Jun-24 09:57N 38°08' E 013°22'0 0.0
2020-Jun-24 07:00N 38°08' E 013°22'1 1.5
2020-Jun-24 06:00N 38°08' E 013°24'2814.1
2020-Jun-24 04:00N 38°34' E 013°38'9815.6
2020-Jun-23 21:43N 40°05' E 014°24'416.5
2020-Jun-23 21:29N 40°09' E 014°26'26 1.6
2020-Jun-23 05:30N 40°33' E 014°40'814.8
2020-Jun-23 04:57N 40°25' E 014°37'1615.5
2020-Jun-23 03:57N 40°11' E 014°29'10615.8
2020-Jun-22 21:15N 38°32' E 013°40'415.4
2020-Jun-22 21:00N 38°29' E 013°38'815.5
2020-Jun-22 20:31N 38°22' E 013°33'815.6
2020-Jun-22 20:01N 38°15' E 013°30'10 2.7
2020-Jun-22 16:28N 38°08' E 013°22'0 0.0
2020-Jun-22 14:28N 38°08' E 013°22'0 0.0
2020-Jun-22 13:58N 38°08' E 013°22'0 0.0
2020-Jun-22 12:58N 38°08' E 013°22'0 0.0
2020-Jun-22 11:58N 38°08' E 013°22'0 0.0
2020-Jun-22 08:58N 38°08' E 013°22'0 0.0
2020-Jun-22 05:28N 38°08' E 013°22'  
Track history (hours):
 
Tides and Currents Weather Stations Pressure Air Temp Water Temp Dewpoint Dewpoint Depression Visibility Wind Speed Wind Dir Waves Ship Positions

Norse Mersey

Operator: Norse Merchant Ferries

Last reported at 2020-Jul-02 03:59 UTC. Time now 2020-Jul-02 15:36 UTC.
Position N 40°10' E 014°29'.

Length 175 m; draft 5.4 m.

Type: Passenger vessel. MMSI: 247026000.

Date/timePositionNaut miles runAvg speedWind from/ knotsBaromVisibWave heightAir tempDewpointWater temp
2020-Jul-02 03:59N 40°10' E 014°29'815.2
2020-Jul-02 03:28N 40°03' E 014°25'15 0.5
2020-Jun-30 21:27N 40°17' E 014°33'  
2020-Jun-25 04:54N 40°25' E 014°37'1415.4
2020-Jun-25 04:00N 40°12' E 014°30'1815.6
2020-Jun-25 02:53N 39°56' E 014°22'9215.6
2020-Jun-24 21:00N 38°31' E 013°38'2610.4
2020-Jun-24 18:30N 38°08' E 013°22'0 0.0
2020-Jun-24 15:30N 38°08' E 013°22'0 0.0
2020-Jun-24 14:00N 38°08' E 013°22'0 0.0
2020-Jun-24 12:00N 38°08' E 013°22'0 0.0
2020-Jun-24 11:30N 38°08' E 013°22'0 0.0
2020-Jun-24 09:57N 38°08' E 013°22'0 0.0
2020-Jun-24 07:00N 38°08' E 013°22'1 1.5
2020-Jun-24 06:00N 38°08' E 013°24'2814.1
2020-Jun-24 04:00N 38°34' E 013°38'9815.6
2020-Jun-23 21:43N 40°05' E 014°24'416.5
2020-Jun-23 21:29N 40°09' E 014°26'26 1.6
2020-Jun-23 05:30N 40°33' E 014°40'814.8
2020-Jun-23 04:57N 40°25' E 014°37'1615.5
2020-Jun-23 03:57N 40°11' E 014°29'10615.8
2020-Jun-22 21:15N 38°32' E 013°40'415.4
2020-Jun-22 21:00N 38°29' E 013°38'815.5
2020-Jun-22 20:31N 38°22' E 013°33'815.6
2020-Jun-22 20:01N 38°15' E 013°30'10 2.7
2020-Jun-22 16:28N 38°08' E 013°22'0 0.0
2020-Jun-22 14:28N 38°08' E 013°22'0 0.0
2020-Jun-22 13:58N 38°08' E 013°22'0 0.0
2020-Jun-22 12:58N 38°08' E 013°22'0 0.0
2020-Jun-22 11:58N 38°08' E 013°22'0 0.0
2020-Jun-22 08:58N 38°08' E 013°22'0 0.0
2020-Jun-22 05:28N 38°08' E 013°22'  

Dump ship's entire track history